sensor_id;sensor_type;location;lat;lon;timestamp;P1;durP1;ratioP1;P2;durP2;ratioP2
5137;SDS011;53959;53.626;11.410;2022-11-15T00:00:49;62.57;;;29.13;;
5137;SDS011;53959;53.626;11.410;2022-11-15T00:03:16;58.20;;;27.70;;
5137;SDS011;53959;53.626;11.410;2022-11-15T00:05:43;57.27;;;28.13;;
5137;SDS011;53959;53.626;11.410;2022-11-15T00:08:09;52.70;;;28.27;;
5137;SDS011;53959;53.626;11.410;2022-11-15T00:10:35;50.47;;;27.07;;
5137;SDS011;53959;53.626;11.410;2022-11-15T00:13:04;49.53;;;25.87;;
5137;SDS011;53959;53.626;11.410;2022-11-15T00:15:37;52.17;;;27.70;;
5137;SDS011;53959;53.626;11.410;2022-11-15T00:18:04;52.43;;;26.67;;
5137;SDS011;53959;53.626;11.410;2022-11-15T00:20:33;51.87;;;25.63;;
5137;SDS011;53959;53.626;11.410;2022-11-15T00:22:59;56.50;;;26.13;;
5137;SDS011;53959;53.626;11.410;2022-11-15T00:25:24;54.47;;;26.60;;
5137;SDS011;53959;53.626;11.410;2022-11-15T00:27:50;51.37;;;25.53;;
5137;SDS011;53959;53.626;11.410;2022-11-15T00:30:19;53.90;;;27.20;;
5137;SDS011;53959;53.626;11.410;2022-11-15T00:32:45;52.87;;;26.73;;
5137;SDS011;53959;53.626;11.410;2022-11-15T00:35:10;56.30;;;26.93;;
5137;SDS011;53959;53.626;11.410;2022-11-15T00:37:36;52.63;;;26.20;;
5137;SDS011;53959;53.626;11.410;2022-11-15T00:40:01;48.87;;;24.40;;
5137;SDS011;53959;53.626;11.410;2022-11-15T00:42:27;53.57;;;27.40;;
5137;SDS011;53959;53.626;11.410;2022-11-15T00:44:52;51.77;;;26.53;;
5137;SDS011;53959;53.626;11.410;2022-11-15T00:47:18;52.00;;;26.67;;
5137;SDS011;53959;53.626;11.410;2022-11-15T00:49:43;52.47;;;25.57;;
5137;SDS011;53959;53.626;11.410;2022-11-15T00:52:09;60.30;;;26.40;;
5137;SDS011;53959;53.626;11.410;2022-11-15T00:54:34;46.47;;;24.60;;
5137;SDS011;53959;53.626;11.410;2022-11-15T00:57:00;47.37;;;25.40;;
5137;SDS011;53959;53.626;11.410;2022-11-15T00:59:25;50.93;;;26.77;;
5137;SDS011;53959;53.626;11.410;2022-11-15T01:01:51;49.20;;;25.20;;
5137;SDS011;53959;53.626;11.410;2022-11-15T01:04:16;57.40;;;27.30;;
5137;SDS011;53959;53.626;11.410;2022-11-15T01:06:42;60.03;;;27.23;;
5137;SDS011;53959;53.626;11.410;2022-11-15T01:09:07;46.50;;;26.20;;
5137;SDS011;53959;53.626;11.410;2022-11-15T01:11:33;53.37;;;27.40;;
5137;SDS011;53959;53.626;11.410;2022-11-15T01:13:58;53.93;;;27.50;;
5137;SDS011;53959;53.626;11.410;2022-11-15T01:16:24;51.70;;;25.90;;
5137;SDS011;53959;53.626;11.410;2022-11-15T01:18:50;51.77;;;26.00;;
5137;SDS011;53959;53.626;11.410;2022-11-15T01:21:16;48.77;;;24.77;;
5137;SDS011;53959;53.626;11.410;2022-11-15T01:23:44;51.40;;;27.97;;
5137;SDS011;53959;53.626;11.410;2022-11-15T01:26:11;49.97;;;25.43;;
5137;SDS011;53959;53.626;11.410;2022-11-15T01:28:39;53.53;;;27.07;;
5137;SDS011;53959;53.626;11.410;2022-11-15T01:31:06;54.03;;;27.63;;
5137;SDS011;53959;53.626;11.410;2022-11-15T01:33:35;54.90;;;26.70;;
5137;SDS011;53959;53.626;11.410;2022-11-15T01:36:04;47.27;;;26.30;;
5137;SDS011;53959;53.626;11.410;2022-11-15T01:38:30;49.60;;;25.23;;
5137;SDS011;53959;53.626;11.410;2022-11-15T01:40:56;58.40;;;27.13;;
5137;SDS011;53959;53.626;11.410;2022-11-15T01:43:32;51.97;;;26.47;;
5137;SDS011;53959;53.626;11.410;2022-11-15T01:46:04;55.63;;;26.73;;
5137;SDS011;53959;53.626;11.410;2022-11-15T01:48:49;49.27;;;25.70;;
5137;SDS011;53959;53.626;11.410;2022-11-15T01:51:17;47.37;;;25.07;;
5137;SDS011;53959;53.626;11.410;2022-11-15T01:53:45;48.40;;;25.00;;
5137;SDS011;53959;53.626;11.410;2022-11-15T01:56:15;45.80;;;24.63;;
5137;SDS011;53959;53.626;11.410;2022-11-15T01:58:45;59.40;;;25.37;;
5137;SDS011;53959;53.626;11.410;2022-11-15T02:01:12;55.00;;;25.83;;
5137;SDS011;53959;53.626;11.410;2022-11-15T02:03:46;45.87;;;24.97;;
5137;SDS011;53959;53.626;11.410;2022-11-15T02:06:16;50.90;;;27.20;;
5137;SDS011;53959;53.626;11.410;2022-11-15T02:08:43;48.93;;;24.67;;
5137;SDS011;53959;53.626;11.410;2022-11-15T02:11:09;51.27;;;25.33;;
5137;SDS011;53959;53.626;11.410;2022-11-15T02:13:35;49.00;;;25.73;;
5137;SDS011;53959;53.626;11.410;2022-11-15T02:18:50;48.47;;;26.10;;
5137;SDS011;53959;53.626;11.410;2022-11-15T02:21:33;48.87;;;25.90;;
5137;SDS011;53959;53.626;11.410;2022-11-15T02:30:27;48.60;;;25.97;;
5137;SDS011;53959;53.626;11.410;2022-11-15T02:33:01;49.23;;;24.90;;
5137;SDS011;53959;53.626;11.410;2022-11-15T02:35:40;45.93;;;25.57;;
5137;SDS011;53959;53.626;11.410;2022-11-15T02:38:17;50.00;;;24.70;;
5137;SDS011;53959;53.626;11.410;2022-11-15T02:43:29;54.87;;;26.03;;
5137;SDS011;53959;53.626;11.410;2022-11-15T02:46:22;48.60;;;25.07;;
5137;SDS011;53959;53.626;11.410;2022-11-15T02:49:23;47.50;;;25.27;;
5137;SDS011;53959;53.626;11.410;2022-11-15T02:51:51;47.30;;;24.90;;
5137;SDS011;53959;53.626;11.410;2022-11-15T02:54:21;47.47;;;25.40;;
5137;SDS011;53959;53.626;11.410;2022-11-15T02:56:53;46.67;;;24.37;;
5137;SDS011;53959;53.626;11.410;2022-11-15T02:59:31;43.07;;;23.40;;
5137;SDS011;53959;53.626;11.410;2022-11-15T03:08:05;50.40;;;25.70;;
5137;SDS011;53959;53.626;11.410;2022-11-15T03:13:30;44.37;;;23.37;;
5137;SDS011;53959;53.626;11.410;2022-11-15T03:16:03;50.47;;;26.40;;
5137;SDS011;53959;53.626;11.410;2022-11-15T03:18:52;48.20;;;23.87;;
5137;SDS011;53959;53.626;11.410;2022-11-15T03:21:22;50.70;;;25.97;;
5137;SDS011;53959;53.626;11.410;2022-11-15T03:23:49;51.80;;;24.27;;
5137;SDS011;53959;53.626;11.410;2022-11-15T03:26:16;44.87;;;23.63;;
5137;SDS011;53959;53.626;11.410;2022-11-15T03:31:22;50.93;;;25.97;;
5137;SDS011;53959;53.626;11.410;2022-11-15T03:34:10;42.43;;;23.43;;
5137;SDS011;53959;53.626;11.410;2022-11-15T03:36:58;42.50;;;23.20;;
5137;SDS011;53959;53.626;11.410;2022-11-15T03:39:24;48.37;;;23.57;;
5137;SDS011;53959;53.626;11.410;2022-11-15T03:41:57;47.17;;;24.20;;
5137;SDS011;53959;53.626;11.410;2022-11-15T03:44:51;42.97;;;23.03;;
5137;SDS011;53959;53.626;11.410;2022-11-15T03:50:10;48.10;;;23.80;;
5137;SDS011;53959;53.626;11.410;2022-11-15T03:52:39;44.60;;;22.53;;
5137;SDS011;53959;53.626;11.410;2022-11-15T03:55:07;45.77;;;23.20;;
5137;SDS011;53959;53.626;11.410;2022-11-15T03:57:35;41.87;;;22.23;;
5137;SDS011;53959;53.626;11.410;2022-11-15T04:00:00;45.33;;;23.10;;
5137;SDS011;53959;53.626;11.410;2022-11-15T04:02:26;50.30;;;25.10;;
5137;SDS011;53959;53.626;11.410;2022-11-15T04:04:53;42.90;;;23.60;;
5137;SDS011;53959;53.626;11.410;2022-11-15T04:07:18;45.80;;;24.07;;
5137;SDS011;53959;53.626;11.410;2022-11-15T04:09:44;39.87;;;22.07;;
5137;SDS011;53959;53.626;11.410;2022-11-15T04:12:34;46.77;;;24.40;;
5137;SDS011;53959;53.626;11.410;2022-11-15T04:15:12;38.40;;;21.70;;
5137;SDS011;53959;53.626;11.410;2022-11-15T04:17:41;45.13;;;23.27;;
5137;SDS011;53959;53.626;11.410;2022-11-15T04:20:10;41.60;;;23.30;;
5137;SDS011;53959;53.626;11.410;2022-11-15T04:23:18;43.47;;;21.50;;
5137;SDS011;53959;53.626;11.410;2022-11-15T04:26:04;44.50;;;23.53;;
5137;SDS011;53959;53.626;11.410;2022-11-15T04:28:33;37.77;;;20.67;;
5137;SDS011;53959;53.626;11.410;2022-11-15T04:30:58;41.30;;;22.33;;
5137;SDS011;53959;53.626;11.410;2022-11-15T04:33:24;43.43;;;23.50;;
5137;SDS011;53959;53.626;11.410;2022-11-15T04:35:50;40.97;;;21.73;;
5137;SDS011;53959;53.626;11.410;2022-11-15T04:38:34;45.43;;;23.17;;
5137;SDS011;53959;53.626;11.410;2022-11-15T04:41:00;38.87;;;22.77;;
5137;SDS011;53959;53.626;11.410;2022-11-15T04:43:26;43.47;;;22.90;;
5137;SDS011;53959;53.626;11.410;2022-11-15T04:45:52;40.90;;;23.63;;
5137;SDS011;53959;53.626;11.410;2022-11-15T04:48:18;42.70;;;22.60;;
5137;SDS011;53959;53.626;11.410;2022-11-15T04:50:43;50.77;;;22.30;;
5137;SDS011;53959;53.626;11.410;2022-11-15T04:53:09;41.80;;;23.00;;
5137;SDS011;53959;53.626;11.410;2022-11-15T04:55:34;43.10;;;24.33;;
5137;SDS011;53959;53.626;11.410;2022-11-15T04:58:00;41.27;;;20.80;;
5137;SDS011;53959;53.626;11.410;2022-11-15T05:00:27;42.97;;;22.10;;
5137;SDS011;53959;53.626;11.410;2022-11-15T05:02:53;39.50;;;21.37;;
5137;SDS011;53959;53.626;11.410;2022-11-15T05:05:38;36.60;;;20.20;;
5137;SDS011;53959;53.626;11.410;2022-11-15T05:08:03;38.60;;;20.90;;
5137;SDS011;53959;53.626;11.410;2022-11-15T05:10:29;39.70;;;20.97;;
5137;SDS011;53959;53.626;11.410;2022-11-15T05:12:55;40.97;;;21.30;;
5137;SDS011;53959;53.626;11.410;2022-11-15T05:15:20;42.03;;;20.53;;
5137;SDS011;53959;53.626;11.410;2022-11-15T05:17:46;40.30;;;21.50;;
5137;SDS011;53959;53.626;11.410;2022-11-15T05:20:12;42.23;;;21.70;;
5137;SDS011;53959;53.626;11.410;2022-11-15T05:22:38;38.87;;;20.50;;
5137;SDS011;53959;53.626;11.410;2022-11-15T05:25:04;37.40;;;21.87;;
5137;SDS011;53959;53.626;11.410;2022-11-15T05:27:30;39.30;;;20.80;;
5137;SDS011;53959;53.626;11.410;2022-11-15T05:29:56;39.13;;;19.77;;
5137;SDS011;53959;53.626;11.410;2022-11-15T05:32:21;35.47;;;19.20;;
5137;SDS011;53959;53.626;11.410;2022-11-15T05:34:47;39.37;;;21.10;;
5137;SDS011;53959;53.626;11.410;2022-11-15T05:37:13;41.50;;;21.00;;
5137;SDS011;53959;53.626;11.410;2022-11-15T05:39:39;41.37;;;20.73;;
5137;SDS011;53959;53.626;11.410;2022-11-15T05:42:06;37.80;;;19.47;;
5137;SDS011;53959;53.626;11.410;2022-11-15T05:44:35;46.47;;;20.70;;
5137;SDS011;53959;53.626;11.410;2022-11-15T05:47:02;34.33;;;20.00;;
5137;SDS011;53959;53.626;11.410;2022-11-15T05:49:31;43.23;;;20.40;;
5137;SDS011;53959;53.626;11.410;2022-11-15T05:52:00;36.93;;;21.27;;
5137;SDS011;53959;53.626;11.410;2022-11-15T05:54:29;39.83;;;20.37;;
5137;SDS011;53959;53.626;11.410;2022-11-15T05:56:56;33.07;;;18.83;;
5137;SDS011;53959;53.626;11.410;2022-11-15T05:59:22;31.33;;;18.07;;
5137;SDS011;53959;53.626;11.410;2022-11-15T06:01:48;35.53;;;18.90;;
5137;SDS011;53959;53.626;11.410;2022-11-15T06:04:13;35.10;;;19.60;;
5137;SDS011;53959;53.626;11.410;2022-11-15T06:06:39;32.00;;;17.80;;
5137;SDS011;53959;53.626;11.410;2022-11-15T06:09:05;33.63;;;18.30;;
5137;SDS011;53959;53.626;11.410;2022-11-15T06:11:30;31.80;;;18.20;;
5137;SDS011;53959;53.626;11.410;2022-11-15T06:13:56;32.13;;;19.50;;
5137;SDS011;53959;53.626;11.410;2022-11-15T06:16:21;32.53;;;18.23;;
5137;SDS011;53959;53.626;11.410;2022-11-15T06:18:47;32.00;;;18.10;;
5137;SDS011;53959;53.626;11.410;2022-11-15T06:21:12;30.10;;;17.87;;
5137;SDS011;53959;53.626;11.410;2022-11-15T06:23:38;34.57;;;19.20;;
5137;SDS011;53959;53.626;11.410;2022-11-15T06:26:03;32.83;;;16.90;;
5137;SDS011;53959;53.626;11.410;2022-11-15T06:28:29;32.63;;;18.37;;
5137;SDS011;53959;53.626;11.410;2022-11-15T06:30:56;42.10;;;19.20;;
5137;SDS011;53959;53.626;11.410;2022-11-15T06:33:28;30.00;;;17.70;;
5137;SDS011;53959;53.626;11.410;2022-11-15T06:35:53;36.70;;;18.50;;
5137;SDS011;53959;53.626;11.410;2022-11-15T06:38:19;32.00;;;17.27;;
5137;SDS011;53959;53.626;11.410;2022-11-15T06:40:44;31.47;;;17.97;;
5137;SDS011;53959;53.626;11.410;2022-11-15T06:43:10;30.03;;;18.50;;
5137;SDS011;53959;53.626;11.410;2022-11-15T06:45:35;35.47;;;18.47;;
5137;SDS011;53959;53.626;11.410;2022-11-15T06:48:01;31.60;;;16.93;;
5137;SDS011;53959;53.626;11.410;2022-11-15T06:50:26;32.23;;;18.13;;
5137;SDS011;53959;53.626;11.410;2022-11-15T06:52:52;28.90;;;17.73;;
5137;SDS011;53959;53.626;11.410;2022-11-15T06:55:17;29.53;;;17.80;;
5137;SDS011;53959;53.626;11.410;2022-11-15T06:57:50;32.10;;;18.13;;
5137;SDS011;53959;53.626;11.410;2022-11-15T07:00:17;37.97;;;18.90;;
5137;SDS011;53959;53.626;11.410;2022-11-15T07:02:44;33.10;;;18.43;;
5137;SDS011;53959;53.626;11.410;2022-11-15T07:05:10;30.37;;;17.57;;
5137;SDS011;53959;53.626;11.410;2022-11-15T07:07:36;30.43;;;17.60;;
5137;SDS011;53959;53.626;11.410;2022-11-15T07:10:01;27.83;;;16.60;;
5137;SDS011;53959;53.626;11.410;2022-11-15T07:12:27;28.27;;;16.53;;
5137;SDS011;53959;53.626;11.410;2022-11-15T07:14:53;31.17;;;17.33;;
5137;SDS011;53959;53.626;11.410;2022-11-15T07:17:18;30.57;;;17.57;;
5137;SDS011;53959;53.626;11.410;2022-11-15T07:19:44;30.03;;;16.10;;
5137;SDS011;53959;53.626;11.410;2022-11-15T07:22:09;32.73;;;17.47;;
5137;SDS011;53959;53.626;11.410;2022-11-15T07:24:35;30.10;;;16.60;;
5137;SDS011;53959;53.626;11.410;2022-11-15T07:27:00;30.87;;;17.60;;
5137;SDS011;53959;53.626;11.410;2022-11-15T07:29:26;29.50;;;16.60;;
5137;SDS011;53959;53.626;11.410;2022-11-15T07:31:51;30.07;;;15.70;;
5137;SDS011;53959;53.626;11.410;2022-11-15T07:34:17;34.33;;;17.50;;
5137;SDS011;53959;53.626;11.410;2022-11-15T07:36:42;28.43;;;17.10;;
5137;SDS011;53959;53.626;11.410;2022-11-15T07:39:08;27.73;;;16.37;;
5137;SDS011;53959;53.626;11.410;2022-11-15T07:41:34;29.23;;;16.83;;
5137;SDS011;53959;53.626;11.410;2022-11-15T07:44:00;29.13;;;17.47;;
5137;SDS011;53959;53.626;11.410;2022-11-15T07:46:26;29.37;;;16.80;;
5137;SDS011;53959;53.626;11.410;2022-11-15T07:48:52;28.47;;;17.10;;
5137;SDS011;53959;53.626;11.410;2022-11-15T07:51:17;28.73;;;15.93;;
5137;SDS011;53959;53.626;11.410;2022-11-15T07:53:43;33.00;;;15.67;;
5137;SDS011;53959;53.626;11.410;2022-11-15T07:56:09;28.93;;;15.27;;
5137;SDS011;53959;53.626;11.410;2022-11-15T07:58:35;25.30;;;15.67;;
5137;SDS011;53959;53.626;11.410;2022-11-15T08:01:08;27.23;;;15.67;;
5137;SDS011;53959;53.626;11.410;2022-11-15T08:03:34;27.70;;;16.67;;
5137;SDS011;53959;53.626;11.410;2022-11-15T08:06:00;31.00;;;15.30;;
5137;SDS011;53959;53.626;11.410;2022-11-15T08:08:26;24.70;;;14.23;;
5137;SDS011;53959;53.626;11.410;2022-11-15T08:10:52;22.63;;;14.60;;
5137;SDS011;53959;53.626;11.410;2022-11-15T08:13:17;22.23;;;14.03;;
5137;SDS011;53959;53.626;11.410;2022-11-15T08:15:43;29.50;;;14.93;;
5137;SDS011;53959;53.626;11.410;2022-11-15T08:18:13;22.67;;;14.80;;
5137;SDS011;53959;53.626;11.410;2022-11-15T08:20:40;25.30;;;14.53;;
5137;SDS011;53959;53.626;11.410;2022-11-15T08:23:06;25.83;;;15.43;;
5137;SDS011;53959;53.626;11.410;2022-11-15T08:25:33;31.13;;;15.93;;
5137;SDS011;53959;53.626;11.410;2022-11-15T08:28:00;30.73;;;17.53;;
5137;SDS011;53959;53.626;11.410;2022-11-15T08:30:28;31.87;;;15.60;;
5137;SDS011;53959;53.626;11.410;2022-11-15T08:32:55;29.43;;;15.17;;
5137;SDS011;53959;53.626;11.410;2022-11-15T08:35:23;26.87;;;14.80;;
5137;SDS011;53959;53.626;11.410;2022-11-15T08:37:48;25.67;;;15.07;;
5137;SDS011;53959;53.626;11.410;2022-11-15T08:40:14;23.63;;;14.00;;
5137;SDS011;53959;53.626;11.410;2022-11-15T08:42:40;28.07;;;13.13;;
5137;SDS011;53959;53.626;11.410;2022-11-15T08:45:06;26.20;;;13.93;;
5137;SDS011;53959;53.626;11.410;2022-11-15T08:47:33;25.50;;;14.23;;
5137;SDS011;53959;53.626;11.410;2022-11-15T08:49:59;22.00;;;12.73;;
5137;SDS011;53959;53.626;11.410;2022-11-15T08:52:24;21.97;;;13.37;;
5137;SDS011;53959;53.626;11.410;2022-11-15T08:54:50;23.27;;;13.43;;
5137;SDS011;53959;53.626;11.410;2022-11-15T08:57:16;23.03;;;13.93;;
5137;SDS011;53959;53.626;11.410;2022-11-15T08:59:41;21.57;;;13.57;;
5137;SDS011;53959;53.626;11.410;2022-11-15T09:02:10;22.00;;;13.20;;
5137;SDS011;53959;53.626;11.410;2022-11-15T09:04:38;22.90;;;13.37;;
5137;SDS011;53959;53.626;11.410;2022-11-15T09:07:05;24.67;;;12.30;;
5137;SDS011;53959;53.626;11.410;2022-11-15T09:09:30;22.87;;;13.10;;
5137;SDS011;53959;53.626;11.410;2022-11-15T09:11:56;24.23;;;13.13;;
5137;SDS011;53959;53.626;11.410;2022-11-15T09:14:21;18.07;;;11.80;;
5137;SDS011;53959;53.626;11.410;2022-11-15T09:16:47;25.13;;;13.77;;
5137;SDS011;53959;53.626;11.410;2022-11-15T09:19:12;22.97;;;13.07;;
5137;SDS011;53959;53.626;11.410;2022-11-15T09:21:39;18.90;;;12.40;;
5137;SDS011;53959;53.626;11.410;2022-11-15T09:24:05;23.17;;;12.67;;
5137;SDS011;53959;53.626;11.410;2022-11-15T09:26:31;19.37;;;11.63;;
5137;SDS011;53959;53.626;11.410;2022-11-15T09:28:56;19.37;;;12.03;;
5137;SDS011;53959;53.626;11.410;2022-11-15T09:31:22;21.80;;;12.73;;
5137;SDS011;53959;53.626;11.410;2022-11-15T09:33:47;25.60;;;12.80;;
5137;SDS011;53959;53.626;11.410;2022-11-15T09:36:13;18.77;;;11.70;;
5137;SDS011;53959;53.626;11.410;2022-11-15T09:38:38;20.13;;;12.87;;
5137;SDS011;53959;53.626;11.410;2022-11-15T09:41:49;18.67;;;11.90;;
5137;SDS011;53959;53.626;11.410;2022-11-15T09:49:40;21.30;;;12.17;;
5137;SDS011;53959;53.626;11.410;2022-11-15T09:52:06;15.53;;;11.00;;
5137;SDS011;53959;53.626;11.410;2022-11-15T09:54:35;17.07;;;12.10;;
5137;SDS011;53959;53.626;11.410;2022-11-15T09:57:12;20.53;;;10.60;;
5137;SDS011;53959;53.626;11.410;2022-11-15T09:59:51;19.20;;;11.10;;
5137;SDS011;53959;53.626;11.410;2022-11-15T10:05:38;17.00;;;11.73;;
5137;SDS011;53959;53.626;11.410;2022-11-15T10:08:20;15.90;;;10.50;;
5137;SDS011;53959;53.626;11.410;2022-11-15T10:13:53;18.30;;;11.10;;
5137;SDS011;53959;53.626;11.410;2022-11-15T10:20:27;20.17;;;11.47;;
5137;SDS011;53959;53.626;11.410;2022-11-15T10:25:38;16.63;;;10.43;;
5137;SDS011;53959;53.626;11.410;2022-11-15T10:31:02;16.37;;;9.33;;
5137;SDS011;53959;53.626;11.410;2022-11-15T10:38:51;15.00;;;9.90;;
5137;SDS011;53959;53.626;11.410;2022-11-15T10:46:32;18.40;;;10.07;;
5137;SDS011;53959;53.626;11.410;2022-11-15T10:49:15;16.40;;;10.47;;
5137;SDS011;53959;53.626;11.410;2022-11-15T10:54:22;17.73;;;11.40;;
5137;SDS011;53959;53.626;11.410;2022-11-15T10:56:50;15.33;;;10.13;;
5137;SDS011;53959;53.626;11.410;2022-11-15T10:59:36;19.50;;;10.27;;
5137;SDS011;53959;53.626;11.410;2022-11-15T11:02:21;25.27;;;9.80;;
5137;SDS011;53959;53.626;11.410;2022-11-15T11:04:53;17.50;;;10.47;;
5137;SDS011;53959;53.626;11.410;2022-11-15T11:07:22;17.53;;;10.63;;
5137;SDS011;53959;53.626;11.410;2022-11-15T11:09:56;19.83;;;11.30;;
5137;SDS011;53959;53.626;11.410;2022-11-15T11:12:27;21.90;;;11.50;;
5137;SDS011;53959;53.626;11.410;2022-11-15T11:14:56;20.23;;;12.27;;
5137;SDS011;53959;53.626;11.410;2022-11-15T11:17:34;19.23;;;12.00;;
5137;SDS011;53959;53.626;11.410;2022-11-15T11:25:42;26.90;;;11.20;;
5137;SDS011;53959;53.626;11.410;2022-11-15T11:28:54;22.27;;;11.80;;
5137;SDS011;53959;53.626;11.410;2022-11-15T11:40:29;16.63;;;9.20;;
5137;SDS011;53959;53.626;11.410;2022-11-15T11:46:24;13.77;;;8.90;;
5137;SDS011;53959;53.626;11.410;2022-11-15T11:57:28;13.80;;;8.20;;
5137;SDS011;53959;53.626;11.410;2022-11-15T12:05:43;11.50;;;7.70;;
5137;SDS011;53959;53.626;11.410;2022-11-15T12:08:31;11.53;;;8.10;;
5137;SDS011;53959;53.626;11.410;2022-11-15T12:11:10;11.53;;;7.00;;
5137;SDS011;53959;53.626;11.410;2022-11-15T12:13:38;14.20;;;8.50;;
5137;SDS011;53959;53.626;11.410;2022-11-15T12:16:06;11.00;;;7.50;;
5137;SDS011;53959;53.626;11.410;2022-11-15T12:18:52;12.30;;;8.47;;
5137;SDS011;53959;53.626;11.410;2022-11-15T12:24:00;12.50;;;8.53;;
5137;SDS011;53959;53.626;11.410;2022-11-15T12:26:32;13.33;;;8.07;;
5137;SDS011;53959;53.626;11.410;2022-11-15T12:29:26;13.20;;;7.67;;
5137;SDS011;53959;53.626;11.410;2022-11-15T12:32:04;13.40;;;7.20;;
5137;SDS011;53959;53.626;11.410;2022-11-15T12:34:41;12.33;;;8.10;;
5137;SDS011;53959;53.626;11.410;2022-11-15T12:40:13;12.07;;;7.80;;
5137;SDS011;53959;53.626;11.410;2022-11-15T12:58:58;19.83;;;9.47;;
5137;SDS011;53959;53.626;11.410;2022-11-15T13:02:15;15.63;;;8.90;;
5137;SDS011;53959;53.626;11.410;2022-11-15T13:06:45;15.60;;;9.50;;
5137;SDS011;53959;53.626;11.410;2022-11-15T13:14:52;12.40;;;8.83;;
5137;SDS011;53959;53.626;11.410;2022-11-15T13:17:47;12.73;;;7.57;;
5137;SDS011;53959;53.626;11.410;2022-11-15T13:22:47;11.87;;;8.20;;
5137;SDS011;53959;53.626;11.410;2022-11-15T13:27:49;12.60;;;8.80;;
5137;SDS011;53959;53.626;11.410;2022-11-15T13:30:21;15.33;;;9.00;;
5137;SDS011;53959;53.626;11.410;2022-11-15T13:32:52;14.93;;;8.53;;
5137;SDS011;53959;53.626;11.410;2022-11-15T13:35:25;15.10;;;8.40;;
5137;SDS011;53959;53.626;11.410;2022-11-15T13:37:53;15.30;;;7.90;;
5137;SDS011;53959;53.626;11.410;2022-11-15T13:40:29;11.10;;;8.10;;
5137;SDS011;53959;53.626;11.410;2022-11-15T13:43:02;11.77;;;8.50;;
5137;SDS011;53959;53.626;11.410;2022-11-15T13:46:03;16.83;;;7.90;;
5137;SDS011;53959;53.626;11.410;2022-11-15T13:48:41;20.93;;;8.20;;
5137;SDS011;53959;53.626;11.410;2022-11-15T13:51:32;10.60;;;8.73;;
5137;SDS011;53959;53.626;11.410;2022-11-15T13:54:09;11.70;;;8.53;;
5137;SDS011;53959;53.626;11.410;2022-11-15T13:56:39;16.40;;;9.43;;
5137;SDS011;53959;53.626;11.410;2022-11-15T13:59:08;21.43;;;9.00;;
5137;SDS011;53959;53.626;11.410;2022-11-15T14:01:45;14.30;;;9.20;;
5137;SDS011;53959;53.626;11.410;2022-11-15T14:04:12;13.77;;;8.70;;
5137;SDS011;53959;53.626;11.410;2022-11-15T14:06:47;17.10;;;9.90;;
5137;SDS011;53959;53.626;11.410;2022-11-15T14:09:24;15.27;;;10.40;;
5137;SDS011;53959;53.626;11.410;2022-11-15T14:12:25;15.93;;;10.33;;
5137;SDS011;53959;53.626;11.410;2022-11-15T14:14:59;15.57;;;9.50;;
5137;SDS011;53959;53.626;11.410;2022-11-15T14:19:55;17.27;;;10.93;;
5137;SDS011;53959;53.626;11.410;2022-11-15T14:22:25;15.30;;;10.37;;
5137;SDS011;53959;53.626;11.410;2022-11-15T14:27:41;15.60;;;10.60;;
5137;SDS011;53959;53.626;11.410;2022-11-15T14:30:17;16.43;;;10.10;;
5137;SDS011;53959;53.626;11.410;2022-11-15T14:32:46;15.53;;;10.73;;
5137;SDS011;53959;53.626;11.410;2022-11-15T14:35:20;18.13;;;11.27;;
5137;SDS011;53959;53.626;11.410;2022-11-15T14:37:47;15.87;;;10.90;;
5137;SDS011;53959;53.626;11.410;2022-11-15T14:40:15;19.90;;;11.60;;
5137;SDS011;53959;53.626;11.410;2022-11-15T14:42:43;18.40;;;11.60;;
5137;SDS011;53959;53.626;11.410;2022-11-15T14:45:14;16.53;;;10.90;;
5137;SDS011;53959;53.626;11.410;2022-11-15T14:47:42;19.80;;;11.40;;
5137;SDS011;53959;53.626;11.410;2022-11-15T14:50:15;23.63;;;12.17;;
5137;SDS011;53959;53.626;11.410;2022-11-15T14:52:42;19.90;;;12.83;;
5137;SDS011;53959;53.626;11.410;2022-11-15T14:55:19;25.10;;;12.93;;
5137;SDS011;53959;53.626;11.410;2022-11-15T14:57:48;22.50;;;11.83;;
5137;SDS011;53959;53.626;11.410;2022-11-15T15:00:14;27.23;;;13.70;;
5137;SDS011;53959;53.626;11.410;2022-11-15T15:02:40;17.93;;;12.70;;
5137;SDS011;53959;53.626;11.410;2022-11-15T15:05:14;25.00;;;14.03;;
5137;SDS011;53959;53.626;11.410;2022-11-15T15:07:44;26.47;;;14.33;;
5137;SDS011;53959;53.626;11.410;2022-11-15T15:10:10;23.17;;;13.03;;
5137;SDS011;53959;53.626;11.410;2022-11-15T15:12:37;20.53;;;12.90;;
5137;SDS011;53959;53.626;11.410;2022-11-15T15:15:03;25.10;;;14.43;;
5137;SDS011;53959;53.626;11.410;2022-11-15T15:17:29;25.87;;;14.83;;
5137;SDS011;53959;53.626;11.410;2022-11-15T15:19:55;21.07;;;14.50;;
5137;SDS011;53959;53.626;11.410;2022-11-15T15:22:20;23.60;;;14.93;;
5137;SDS011;53959;53.626;11.410;2022-11-15T15:24:50;23.07;;;15.03;;
5137;SDS011;53959;53.626;11.410;2022-11-15T15:27:16;37.50;;;14.67;;
5137;SDS011;53959;53.626;11.410;2022-11-15T15:29:41;27.63;;;15.00;;
5137;SDS011;53959;53.626;11.410;2022-11-15T15:32:08;22.77;;;14.30;;
5137;SDS011;53959;53.626;11.410;2022-11-15T15:34:33;24.10;;;14.90;;
5137;SDS011;53959;53.626;11.410;2022-11-15T15:39:47;24.40;;;15.03;;
5137;SDS011;53959;53.626;11.410;2022-11-15T15:42:13;24.00;;;15.90;;
5137;SDS011;53959;53.626;11.410;2022-11-15T15:44:39;32.80;;;16.13;;
5137;SDS011;53959;53.626;11.410;2022-11-15T15:47:09;24.13;;;15.50;;
5137;SDS011;53959;53.626;11.410;2022-11-15T15:49:41;29.03;;;15.80;;
5137;SDS011;53959;53.626;11.410;2022-11-15T15:52:06;25.37;;;15.97;;
5137;SDS011;53959;53.626;11.410;2022-11-15T15:54:32;28.97;;;14.60;;
5137;SDS011;53959;53.626;11.410;2022-11-15T15:56:57;30.20;;;16.10;;
5137;SDS011;53959;53.626;11.410;2022-11-15T15:59:23;25.93;;;15.23;;
5137;SDS011;53959;53.626;11.410;2022-11-15T16:01:48;30.97;;;16.10;;
5137;SDS011;53959;53.626;11.410;2022-11-15T16:04:14;39.07;;;17.20;;
5137;SDS011;53959;53.626;11.410;2022-11-15T16:06:40;32.83;;;17.13;;
5137;SDS011;53959;53.626;11.410;2022-11-15T16:09:10;29.40;;;16.83;;
5137;SDS011;53959;53.626;11.410;2022-11-15T16:11:45;34.83;;;19.83;;
5137;SDS011;53959;53.626;11.410;2022-11-15T16:14:10;28.53;;;16.77;;
5137;SDS011;53959;53.626;11.410;2022-11-15T16:16:36;31.80;;;18.60;;
5137;SDS011;53959;53.626;11.410;2022-11-15T16:19:03;29.03;;;17.10;;
5137;SDS011;53959;53.626;11.410;2022-11-15T16:21:29;31.07;;;17.67;;
5137;SDS011;53959;53.626;11.410;2022-11-15T16:23:55;35.00;;;18.67;;
5137;SDS011;53959;53.626;11.410;2022-11-15T16:26:24;29.17;;;17.80;;
5137;SDS011;53959;53.626;11.410;2022-11-15T16:28:52;29.73;;;17.80;;
5137;SDS011;53959;53.626;11.410;2022-11-15T16:31:18;32.67;;;18.67;;
5137;SDS011;53959;53.626;11.410;2022-11-15T16:33:46;30.03;;;18.80;;
5137;SDS011;53959;53.626;11.410;2022-11-15T16:36:18;28.50;;;18.10;;
5137;SDS011;53959;53.626;11.410;2022-11-15T16:38:45;30.03;;;17.50;;
5137;SDS011;53959;53.626;11.410;2022-11-15T16:41:11;28.67;;;17.40;;
5137;SDS011;53959;53.626;11.410;2022-11-15T16:43:37;33.60;;;19.33;;
5137;SDS011;53959;53.626;11.410;2022-11-15T16:46:15;36.03;;;20.27;;
5137;SDS011;53959;53.626;11.410;2022-11-15T16:48:43;28.20;;;18.40;;
5137;SDS011;53959;53.626;11.410;2022-11-15T16:51:08;31.20;;;20.00;;
5137;SDS011;53959;53.626;11.410;2022-11-15T16:53:34;33.07;;;18.73;;